Time;durP1;ratioP1;P1;durP2;ratioP2;P2;SDS_P1;SDS_P2;PMS_P1;PMS_P2;Temp;Humidity;BMP_temperature;BMP_pressure;BME280_temperature;BME280_humidity;BME280_pressure;Samples;Min_cycle;Max_cycle;Signal;HPM_P1;HPM_P2
2022/12/13 00:00:43;;;;;;;;;40.00;35.80;;;;;2.51;58.80;100132.09;2078723;28;46644;-64
2022/12/13 00:01:45;;;;;;;;;35.25;34.50;;;;;2.51;58.34;100130.34;2078387;28;46655;-65
2022/12/13 00:02:45;;;;;;;;;35.80;33.80;;;;;2.52;58.78;100125.97;2096246;28;47048;-65
2022/12/13 00:03:46;;;;;;;;;36.50;29.75;;;;;2.52;58.22;100116.38;2096503;28;46424;-64
2022/12/13 00:04:46;;;;;;;;;42.50;38.75;;;;;2.52;58.52;100126.84;2096154;28;46680;-64
2022/12/13 00:05:47;;;;;;;;;37.00;32.00;;;;;2.52;58.48;100113.75;2096382;28;46499;-65
2022/12/13 00:06:48;;;;;;;;;39.75;35.50;;;;;2.52;58.35;100115.50;2097021;28;45806;-65
2022/12/13 00:07:48;;;;;;;;;41.00;37.20;;;;;2.51;58.42;100116.38;2096770;28;46811;-65
2022/12/13 00:08:48;;;;;;;;;43.75;36.25;;;;;2.51;58.49;100117.25;2096793;28;46512;-65
2022/12/13 00:09:49;;;;;;;;;31.75;28.25;;;;;2.50;58.38;100114.63;2095940;28;46748;-64
2022/12/13 00:10:59;;;;;;;;;37.25;34.25;;;;;2.48;58.35;100116.38;2096912;28;46607;-63
2022/12/13 00:11:59;;;;;;;;;38.40;34.80;;;;;2.49;58.55;100110.25;2094172;28;46908;-64
2022/12/13 00:12:59;;;;;;;;;32.75;31.25;;;;;2.48;58.32;100116.38;2096571;28;46661;-65
2022/12/13 00:14:00;;;;;;;;;28.25;26.25;;;;;2.48;58.42;100114.63;2096064;28;45971;-65
2022/12/13 00:15:01;;;;;;;;;33.40;28.40;;;;;2.47;58.64;100110.25;2096366;28;47050;-65
2022/12/13 00:16:04;;;;;;;;;24.50;22.00;;;;;2.48;58.47;100098.03;2096295;28;46748;-65
2022/12/13 00:17:05;;;;;;;;;42.40;36.40;;;;;2.48;58.44;100104.16;2096979;28;46057;-66
2022/12/13 00:18:05;;;;;;;;;31.25;29.50;;;;;2.49;58.26;100111.13;2096306;28;45920;-64
2022/12/13 00:19:06;;;;;;;;;42.25;37.75;;;;;2.48;58.37;100106.78;2095647;28;46491;-65
2022/12/13 00:20:06;;;;;;;;;36.50;35.75;;;;;2.49;58.19;100107.66;2096218;28;46275;-65
2022/12/13 00:21:10;;;;;;;;;37.75;36.25;;;;;2.49;58.32;100108.53;2096614;28;45955;-64
2022/12/13 00:22:10;;;;;;;;;33.40;30.80;;;;;2.48;58.24;100109.41;2096304;28;47892;-62
2022/12/13 00:23:11;;;;;;;;;39.25;36.00;;;;;2.45;58.27;100106.78;2092682;28;46368;-63
2022/12/13 00:24:12;;;;;;;;;32.75;30.50;;;;;2.46;58.29;100105.91;2090051;28;46266;-63
2022/12/13 00:25:12;;;;;;;;;31.50;30.50;;;;;2.47;58.33;100104.16;2072833;28;46515;-65
2022/12/13 00:26:15;;;;;;;;;39.00;36.25;;;;;2.46;58.08;100107.66;2084215;28;46729;-65
2022/12/13 00:27:15;;;;;;;;;28.00;27.80;;;;;2.46;58.34;100100.66;2096130;28;46245;-65
2022/12/13 00:28:16;;;;;;;;;45.00;38.25;;;;;2.45;58.12;100106.78;2096630;28;46376;-64
2022/12/13 00:29:17;;;;;;;;;32.60;27.80;;;;;2.44;58.17;100102.41;2096802;28;47782;-65
2022/12/13 00:30:17;;;;;;;;;33.75;33.00;;;;;2.45;58.20;100103.28;2096444;28;46851;-64
2022/12/13 00:31:19;;;;;;;;;31.75;30.25;;;;;2.45;58.26;100105.91;2096906;28;46273;-64
2022/12/13 00:32:19;;;;;;;;;31.80;31.00;;;;;2.44;58.11;100101.53;2096397;28;46265;-65
2022/12/13 00:33:19;;;;;;;;;33.75;29.00;;;;;2.43;58.04;100094.56;2096900;28;46339;-65
2022/12/13 00:34:20;;;;;;;;;25.00;24.25;;;;;2.43;57.75;100099.81;2096686;28;46664;-64
2022/12/13 00:35:20;;;;;;;;;37.50;33.50;;;;;2.43;58.00;100102.41;2096757;28;46893;-65
2022/12/13 00:36:21;;;;;;;;;35.00;32.75;;;;;2.43;58.07;100103.28;2095944;28;47393;-66
2022/12/13 00:37:21;;;;;;;;;33.25;28.75;;;;;2.43;58.17;100097.19;2096028;28;45896;-64
2022/12/13 00:38:22;;;;;;;;;40.00;32.50;;;;;2.43;58.11;100097.19;2096326;28;46555;-66
2022/12/13 00:39:22;;;;;;;;;34.50;32.50;;;;;2.40;57.84;100098.03;2096412;28;45898;-65
2022/12/13 00:40:23;;;;;;;;;33.50;32.00;;;;;2.39;57.74;100095.41;2096451;28;46828;-65
2022/12/13 00:41:23;;;;;;;;;34.50;31.50;;;;;2.38;57.68;100097.16;2096617;28;46319;-66
2022/12/13 00:42:24;;;;;;;;;30.50;29.00;;;;;2.39;57.92;100098.03;2095035;28;46606;-64
2022/12/13 00:43:24;;;;;;;;;29.50;26.50;;;;;2.37;58.03;100098.03;2103120;28;46771;-65
2022/12/13 00:44:25;;;;;;;;;32.25;28.50;;;;;2.37;57.94;100095.41;2099863;28;47846;-66
2022/12/13 00:45:25;;;;;;;;;34.50;32.25;;;;;2.38;57.83;100097.16;2087171;28;46887;-66
2022/12/13 00:46:27;;;;;;;;;32.25;31.50;;;;;2.38;57.79;100093.66;2086831;28;46063;-64
2022/12/13 00:47:27;;;;;;;;;36.40;31.00;;;;;2.36;57.91;100097.16;2103410;28;47127;-64
2022/12/13 00:48:27;;;;;;;;;36.50;33.75;;;;;2.37;58.10;100098.03;2095737;28;46532;-65
2022/12/13 00:49:28;;;;;;;;;31.25;25.75;;;;;2.36;57.76;100093.66;2094453;28;46431;-65
2022/12/13 00:50:28;;;;;;;;;31.25;31.25;;;;;2.36;57.82;100091.03;2087731;28;46190;-64
2022/12/13 00:51:30;;;;;;;;;30.25;28.00;;;;;2.37;57.88;100095.41;2096527;28;46629;-64
2022/12/13 00:52:33;;;;;;;;;34.80;31.80;;;;;2.37;57.51;100092.78;2096913;28;46101;-64
2022/12/13 00:53:33;;;;;;;;;33.20;28.80;;;;;2.37;57.56;100090.16;2087912;28;46697;-64
2022/12/13 00:54:34;;;;;;;;;33.75;30.25;;;;;2.36;57.73;100088.44;2096262;28;45572;-66
2022/12/13 00:55:39;;;;;;;;;27.00;25.50;;;;;2.38;57.69;100091.91;2096052;28;47161;-65
2022/12/13 00:56:39;;;;;;;;;27.20;23.20;;;;;2.36;57.75;100081.44;2097928;28;46023;-65
2022/12/13 00:57:40;;;;;;;;;33.00;30.50;;;;;2.36;57.81;100091.91;2099984;28;46755;-65
2022/12/13 00:58:41;;;;;;;;;24.75;22.00;;;;;2.37;57.56;100090.16;2089064;28;46327;-64
2022/12/13 00:59:41;;;;;;;;;30.60;27.60;;;;;2.38;57.71;100091.03;2101022;28;46649;-65
2022/12/13 01:00:42;;;;;;;;;37.25;34.00;;;;;2.37;57.61;100090.16;2098243;28;46258;-65
2022/12/13 01:01:42;;;;;;;;;34.50;32.50;;;;;2.38;57.83;100093.66;2093551;28;46983;-64
2022/12/13 01:02:42;;;;;;;;;30.50;27.25;;;;;2.38;57.60;100096.28;2099702;28;46156;-62
2022/12/13 01:03:43;;;;;;;;;32.75;31.00;;;;;2.36;57.79;100089.28;2091117;28;46526;-64
2022/12/13 01:04:44;;;;;;;;;35.80;34.20;;;;;2.35;57.41;100090.16;2101751;28;46837;-65
2022/12/13 01:05:46;;;;;;;;;31.00;27.25;;;;;2.36;57.99;100088.44;2100291;28;46360;-62
2022/12/13 01:06:48;;;;;;;;;32.20;29.00;;;;;2.37;57.61;100090.16;2098756;28;46472;-64
2022/12/13 01:07:48;;;;;;;;;33.40;29.40;;;;;2.38;57.39;100088.41;2103928;28;46113;-65
2022/12/13 01:08:49;;;;;;;;;36.75;31.75;;;;;2.36;57.24;100096.28;2078463;28;46181;-64
2022/12/13 01:09:49;;;;;;;;;32.75;29.75;;;;;2.36;57.55;100091.91;2082173;28;44982;-64
2022/12/13 01:10:50;;;;;;;;;35.25;31.50;;;;;2.35;57.50;100090.16;2095522;28;45796;-64
2022/12/13 01:11:50;;;;;;;;;32.00;30.50;;;;;2.35;57.50;100091.91;2095183;28;46472;-64
2022/12/13 01:12:50;;;;;;;;;27.00;23.75;;;;;2.36;57.51;100086.69;2095535;28;46235;-64
2022/12/13 01:13:51;;;;;;;;;32.25;30.00;;;;;2.37;57.33;100087.56;2095216;28;46291;-64
2022/12/13 01:14:51;;;;;;;;;30.25;27.50;;;;;2.36;57.34;100088.44;2096197;28;46844;-64
2022/12/13 01:15:51;;;;;;;;;31.00;29.00;;;;;2.36;57.27;100093.66;2096454;28;46046;-64
2022/12/13 01:16:54;;;;;;;;;36.00;31.25;;;;;2.37;57.31;100087.56;2094964;28;46298;-63
2022/12/13 01:17:54;;;;;;;;;29.20;29.20;;;;;2.36;57.21;100094.53;2094951;28;46556;-65
2022/12/13 01:18:57;;;;;;;;;29.75;28.50;;;;;2.35;57.30;100092.78;2096367;28;46347;-63
2022/12/13 01:19:57;;;;;;;;;32.40;26.80;;;;;2.35;57.26;100091.91;2096258;28;46396;-64
2022/12/13 01:21:01;;;;;;;;;33.50;31.25;;;;;2.35;57.44;100098.03;2096266;28;46778;-63
2022/12/13 01:22:04;;;;;;;;;30.00;28.40;;;;;2.36;57.28;100089.28;2096177;28;46513;-64
2022/12/13 01:23:05;;;;;;;;;29.20;25.60;;;;;2.36;56.98;100091.91;2095800;28;46511;-65
2022/12/13 01:24:06;;;;;;;;;29.60;26.40;;;;;2.36;57.11;100093.66;2096137;28;46621;-65
2022/12/13 01:25:07;;;;;;;;;29.00;26.40;;;;;2.33;57.23;100089.31;2096345;28;46948;-64
2022/12/13 01:26:11;;;;;;;;;27.25;26.00;;;;;2.35;56.96;100097.16;2096272;28;46003;-66
2022/12/13 01:27:11;;;;;;;;;29.00;26.40;;;;;2.32;56.86;100082.31;2095887;28;46534;-65
2022/12/13 01:28:11;;;;;;;;;25.25;23.25;;;;;2.32;56.98;100087.56;2095790;28;45317;-64
2022/12/13 01:29:12;;;;;;;;;30.75;25.50;;;;;2.32;56.76;100081.44;2096535;28;45643;-64
2022/12/13 01:30:12;;;;;;;;;26.75;26.75;;;;;2.33;56.96;100085.81;2095934;28;45599;-65
2022/12/13 01:31:16;;;;;;;;;27.25;25.25;;;;;2.33;56.88;100093.66;2096317;28;46257;-65
2022/12/13 01:32:16;;;;;;;;;31.00;30.00;;;;;2.32;57.03;100090.19;2095444;28;46639;-65
2022/12/13 01:33:16;;;;;;;;;28.75;27.50;;;;;2.32;56.95;100086.69;2096236;28;46203;-65
2022/12/13 01:34:19;;;;;;;;;34.25;30.50;;;;;2.32;57.07;100082.31;2095968;28;46894;-66
2022/12/13 01:35:20;;;;;;;;;28.20;25.20;;;;;2.32;56.63;100090.19;2095923;28;47113;-65
2022/12/13 01:36:22;;;;;;;;;29.75;29.75;;;;;2.32;56.86;100084.06;2086829;28;46803;-64
2022/12/13 01:37:22;;;;;;;;;27.20;25.40;;;;;2.33;56.84;100080.56;2090435;28;46845;-65
2022/12/13 01:38:22;;;;;;;;;28.75;26.75;;;;;2.31;56.83;100080.56;2096401;28;45867;-62
2022/12/13 01:39:23;;;;;;;;;33.50;26.00;;;;;2.30;56.53;100076.22;2093828;28;46502;-63
2022/12/13 01:40:23;;;;;;;;;30.00;24.00;;;;;2.31;56.85;100072.72;2095832;28;46563;-64
2022/12/13 01:41:23;;;;;;;;;28.00;26.25;;;;;2.30;57.04;100070.97;2096300;28;46211;-64
2022/12/13 01:42:24;;;;;;;;;30.50;27.50;;;;;2.30;56.83;100068.38;2086055;28;46273;-63
2022/12/13 01:43:47;;;;;;;;;28.00;26.50;;;;;2.31;56.86;100069.22;2086874;28;46526;-62
2022/12/13 01:45:05;;;;;;;;;25.80;25.20;;;;;2.29;56.65;100077.09;2093826;28;46490;-65
2022/12/13 01:46:05;;;;;;;;;25.80;25.20;;;;;2.29;56.65;100071.84;2094298;28;46427;-65
2022/12/13 01:47:05;;;;;;;;;22.50;21.50;;;;;2.29;56.63;100074.47;2096369;28;46901;-64
2022/12/13 01:48:11;;;;;;;;;27.25;25.50;;;;;2.29;56.62;100076.22;2095792;28;46913;-65
2022/12/13 01:49:15;;;;;;;;;23.20;22.20;;;;;2.28;56.61;100075.31;2096015;28;46432;-64
2022/12/13 01:50:27;;;;;;;;;28.60;26.80;;;;;2.27;56.40;100075.31;2096109;28;46531;-63
2022/12/13 01:51:38;;;;;;;;;32.00;29.00;;;;;2.26;56.61;100078.81;2092973;28;46655;-64
2022/12/13 01:52:40;;;;;;;;;31.60;28.40;;;;;2.25;56.67;100082.28;2095366;28;46665;-64
2022/12/13 01:53:43;;;;;;;;;27.00;25.00;;;;;2.24;56.83;100078.81;2095813;28;46608;-64
2022/12/13 01:54:47;;;;;;;;;25.20;24.80;;;;;2.23;56.72;100081.44;2096106;28;46936;-65
2022/12/13 01:55:52;;;;;;;;;31.00;30.20;;;;;2.23;56.55;100073.56;2096147;28;45174;-64
2022/12/13 01:56:55;;;;;;;;;25.40;21.00;;;;;2.24;56.56;100076.19;2092721;28;47020;-65
2022/12/13 01:58:00;;;;;;;;;23.20;22.60;;;;;2.24;56.76;100075.31;2090368;28;46752;-64
2022/12/13 01:59:01;;;;;;;;;22.80;22.00;;;;;2.23;56.47;100073.56;2095243;28;46584;-65
2022/12/13 02:00:04;;;;;;;;;26.20;21.20;;;;;2.23;56.66;100070.94;2095468;28;46759;-64
2022/12/13 02:01:05;;;;;;;;;31.00;27.80;;;;;2.22;56.24;100077.94;2096213;28;45577;-63
2022/12/13 02:02:06;;;;;;;;;27.00;21.75;;;;;2.22;56.47;100077.94;2095546;28;46292;-66
2022/12/13 02:03:07;;;;;;;;;27.60;25.00;;;;;2.21;56.66;100080.56;2077154;28;46838;-64
2022/12/13 02:04:08;;;;;;;;;26.00;23.00;;;;;2.21;56.35;100089.28;2086562;28;46630;-64
2022/12/13 02:05:14;;;;;;;;;15.40;14.00;;;;;2.20;56.25;100084.91;2095782;28;46180;-63
2022/12/13 02:06:20;;;;;;;;;27.60;21.40;;;;;2.19;56.78;100087.53;2096183;28;46533;-64
2022/12/13 02:07:27;;;;;;;;;25.40;22.20;;;;;2.18;56.39;100080.56;2094708;28;46733;-63
2022/12/13 02:08:28;;;;;;;;;26.40;24.60;;;;;2.17;56.52;100082.31;2095002;28;46695;-64
2022/12/13 02:09:29;;;;;;;;;31.20;24.60;;;;;2.19;56.15;100085.78;2095743;28;46172;-64
2022/12/13 02:10:30;;;;;;;;;25.25;19.50;;;;;2.19;56.58;100087.53;2095272;28;46669;-63
2022/12/13 02:11:32;;;;;;;;;24.40;21.80;;;;;2.19;56.66;100087.53;2089985;28;46808;-62
2022/12/13 02:12:35;;;;;;;;;30.00;24.40;;;;;2.18;56.41;100080.56;2095636;28;47039;-64
2022/12/13 02:13:36;;;;;;;;;28.60;26.60;;;;;2.19;56.27;100082.31;2094944;28;46622;-64
2022/12/13 02:14:39;;;;;;;;;24.00;24.00;;;;;2.18;56.23;100080.56;2095903;28;46293;-63
2022/12/13 02:16:07;;;;;;;;;25.40;25.40;;;;;2.18;56.59;100081.44;2095997;28;46383;-63
2022/12/13 02:17:10;;;;;;;;;28.00;25.20;;;;;2.19;56.28;100079.69;2093811;28;47173;-64
2022/12/13 02:18:25;;;;;;;;;27.40;23.40;;;;;2.17;56.24;100079.69;2095870;28;45735;-64
2022/12/13 02:19:31;;;;;;;;;26.00;25.80;;;;;2.17;56.27;100091.91;2095868;28;46927;-64
2022/12/13 02:21:13;;;;;;;;;30.40;27.20;;;;;2.15;56.33;100091.00;2096201;28;46525;-63
2022/12/13 02:22:19;;;;;;;;;25.40;25.40;;;;;2.14;56.50;100087.50;2093922;28;46544;-64
2022/12/13 02:23:51;;;;;;;;;22.00;22.00;;;;;2.14;56.18;100089.25;2092309;28;46534;-64
2022/12/13 02:25:04;;;;;;;;;24.20;23.00;;;;;2.12;56.36;100081.41;2094553;28;46478;-64
2022/12/13 02:26:22;;;;;;;;;24.60;22.00;;;;;2.12;55.98;100086.63;2095711;28;46387;-66
2022/12/13 02:27:55;;;;;;;;;27.00;22.40;;;;;2.12;56.33;100075.28;2093652;28;46682;-64
2022/12/13 02:29:01;;;;;;;;;24.20;22.20;;;;;2.11;56.18;100076.16;2077732;28;46572;-65
2022/12/13 02:30:25;;;;;;;;;27.80;25.80;;;;;2.11;56.33;100078.78;2078000;28;46147;-65
2022/12/13 02:31:38;;;;;;;;;26.60;22.80;;;;;2.10;56.18;100075.28;2078324;28;46881;-64
2022/12/13 02:32:53;;;;;;;;;24.20;20.80;;;;;2.11;56.08;100086.63;2078023;28;46041;-64
2022/12/13 02:34:09;;;;;;;;;27.20;23.80;;;;;2.09;55.89;100081.41;2077654;28;46323;-64
2022/12/13 02:35:43;;;;;;;;;27.00;22.60;;;;;2.09;56.06;100083.13;2061693;28;47032;-65
2022/12/13 02:37:09;;;;;;;;;23.60;23.20;;;;;2.08;56.06;100082.28;2071181;28;45992;-63
2022/12/13 02:38:24;;;;;;;;;22.20;21.40;;;;;2.06;56.18;100070.94;2073423;28;46903;-64
2022/12/13 02:39:33;;;;;;;;;21.60;19.80;;;;;2.09;55.96;100075.28;2079368;28;46385;-63
2022/12/13 02:40:46;;;;;;;;;30.00;25.20;;;;;2.08;55.69;100077.03;2077951;28;46876;-63
2022/12/13 02:41:56;;;;;;;;;24.80;22.80;;;;;2.09;55.95;100077.91;2079399;28;47247;-63
2022/12/13 02:43:19;;;;;;;;;21.40;21.00;;;;;2.09;55.96;100080.53;2079323;28;46816;-64
2022/12/13 02:44:24;;;;;;;;;24.60;22.60;;;;;2.08;55.81;100073.53;2073231;28;46677;-65
2022/12/13 02:45:33;;;;;;;;;22.60;21.40;;;;;2.08;55.89;100078.78;2079591;28;46306;-64
2022/12/13 02:46:40;;;;;;;;;26.40;22.80;;;;;2.07;55.96;100077.91;2079530;28;46401;-64
2022/12/13 02:47:42;;;;;;;;;22.20;21.40;;;;;2.06;55.99;100074.41;2079153;28;46408;-62
2022/12/13 02:48:45;;;;;;;;;26.40;21.60;;;;;2.05;55.67;100069.19;2079445;28;45322;-63
2022/12/13 02:49:50;;;;;;;;;23.40;21.60;;;;;2.05;55.78;100070.06;2071418;28;46771;-64
2022/12/13 02:50:52;;;;;;;;;13.80;13.80;;;;;2.06;55.73;100074.41;2071803;28;47065;-64
2022/12/13 02:51:53;;;;;;;;;24.40;24.40;;;;;2.06;55.68;100074.41;2079266;28;46277;-63
2022/12/13 02:52:54;;;;;;;;;19.40;17.20;;;;;2.05;55.54;100075.28;2079824;28;46399;-64
2022/12/13 02:53:55;;;;;;;;;27.50;25.25;;;;;2.05;55.67;100075.28;2079445;28;46246;-62
2022/12/13 02:54:56;;;;;;;;;26.00;22.50;;;;;2.05;55.89;100075.28;2079256;28;46248;-63
2022/12/13 02:55:57;;;;;;;;;15.00;14.00;;;;;2.06;55.47;100071.81;2079769;28;46431;-64
2022/12/13 02:56:58;;;;;;;;;26.00;23.50;;;;;2.07;55.84;100075.28;2079531;28;46478;-62
2022/12/13 02:57:59;;;;;;;;;25.40;24.40;;;;;2.06;55.85;100069.19;2079252;28;46568;-64
2022/12/13 02:59:06;;;;;;;;;20.75;19.25;;;;;2.08;55.77;100065.69;2079524;28;45714;-63
2022/12/13 03:00:22;;;;;;;;;25.60;22.20;;;;;2.08;55.70;100063.94;2078782;28;45546;-63
2022/12/13 03:01:57;;;;;;;;;23.00;21.20;;;;;2.08;55.59;100061.34;2079442;28;45761;-64
2022/12/13 03:03:21;;;;;;;;;22.80;22.80;;;;;2.07;55.38;100062.22;2079298;28;46800;-65
2022/12/13 03:04:24;;;;;;;;;24.80;22.40;;;;;2.06;55.56;100063.94;2075075;28;46381;-64
2022/12/13 03:07:23;;;;;;;;;21.40;21.00;;;;;2.06;55.52;100063.94;2089001;28;46380;-66
2022/12/13 03:08:42;;;;;;;;;17.60;17.00;;;;;2.08;55.42;100063.06;2079032;28;47367;-65
2022/12/13 03:09:57;;;;;;;;;17.20;17.20;;;;;2.07;55.40;100067.44;2087181;28;46689;-64
2022/12/13 03:11:10;;;;;;;;;23.20;21.40;;;;;2.08;55.48;100060.47;2096994;28;46532;-65
2022/12/13 03:13:48;;;;;;;;;19.60;19.60;;;;;2.09;55.65;100059.59;2096560;28;46776;-64
2022/12/13 03:15:08;;;;;;;;;24.60;24.60;;;;;2.08;55.43;100056.09;2096276;28;46236;-64
2022/12/13 03:16:20;;;;;;;;;21.60;21.60;;;;;2.07;55.36;100043.88;2096745;28;46792;-65
2022/12/13 03:17:24;;;;;;;;;24.00;24.00;;;;;2.08;55.33;100053.47;2097296;28;46901;-65
2022/12/13 03:18:27;;;;;;;;;32.00;25.60;;;;;2.08;55.13;100050.88;2096585;28;45623;-65
2022/12/13 03:19:27;;;;;;;;;20.20;19.60;;;;;2.09;55.00;100049.13;2096862;28;46609;-64
2022/12/13 03:20:28;;;;;;;;;21.75;20.00;;;;;2.08;55.22;100048.25;2096826;28;46301;-65
2022/12/13 03:21:29;;;;;;;;;26.75;26.75;;;;;2.08;55.44;100048.25;2096803;28;46187;-64
2022/12/13 03:22:33;;;;;;;;;21.00;18.25;;;;;2.08;55.39;100043.00;2096810;28;46265;-63
2022/12/13 03:23:35;;;;;;;;;22.00;21.60;;;;;2.10;54.80;100041.25;2096525;28;46739;-65
2022/12/13 03:24:35;;;;;;;;;22.80;21.20;;;;;2.08;55.22;100040.41;2096822;28;46863;-65
2022/12/13 03:25:36;;;;;;;;;25.75;22.50;;;;;2.08;55.02;100039.53;2087854;28;46637;-64
2022/12/13 03:26:38;;;;;;;;;24.00;20.00;;;;;2.06;55.10;100034.28;2095430;28;45630;-64
2022/12/13 03:27:39;;;;;;;;;21.40;21.40;;;;;2.06;55.31;100036.91;2096441;28;47007;-65
2022/12/13 03:28:40;;;;;;;;;19.00;19.00;;;;;2.06;55.46;100032.53;2095476;28;46616;-64
2022/12/13 03:29:40;;;;;;;;;19.25;19.25;;;;;2.07;55.39;100033.41;2096690;28;46723;-64
2022/12/13 03:30:40;;;;;;;;;23.50;21.75;;;;;2.06;55.25;100035.16;2096280;28;46676;-65
2022/12/13 03:31:41;;;;;;;;;25.50;23.25;;;;;2.06;55.06;100036.91;2096409;28;47070;-64
2022/12/13 03:32:41;;;;;;;;;20.50;20.50;;;;;2.06;55.07;100040.41;2096487;28;46829;-64
2022/12/13 03:33:41;;;;;;;;;21.50;19.25;;;;;2.06;54.93;100031.69;2096762;28;46489;-63
2022/12/13 03:34:42;;;;;;;;;25.25;24.00;;;;;2.06;54.74;100036.91;2096946;28;45545;-64
2022/12/13 03:35:43;;;;;;;;;29.00;22.00;;;;;2.05;55.21;100035.16;2096771;28;46343;-64
2022/12/13 03:36:43;;;;;;;;;18.60;18.60;;;;;2.04;54.89;100036.03;2096608;28;46389;-63
2022/12/13 03:37:44;;;;;;;;;22.75;19.50;;;;;2.02;54.71;100035.13;2095950;28;46430;-64
2022/12/13 03:38:46;;;;;;;;;20.25;19.75;;;;;2.02;54.72;100033.38;2095898;28;44966;-64
2022/12/13 03:39:46;;;;;;;;;22.60;20.40;;;;;2.02;54.65;100033.38;2096384;28;46386;-64
2022/12/13 03:40:47;;;;;;;;;23.25;22.00;;;;;2.02;54.97;100028.16;2096663;28;46349;-64
2022/12/13 03:41:49;;;;;;;;;27.00;24.25;;;;;2.00;55.20;100032.53;2096770;28;45573;-64
2022/12/13 03:42:49;;;;;;;;;22.60;18.40;;;;;2.00;54.69;100032.53;2087949;28;45785;-64
2022/12/13 03:43:49;;;;;;;;;22.75;22.00;;;;;2.00;54.84;100037.75;2090847;28;46376;-64
2022/12/13 03:44:50;;;;;;;;;21.00;18.50;;;;;1.98;54.74;100031.66;2096759;28;46142;-63
2022/12/13 03:45:52;;;;;;;;;22.00;22.00;;;;;1.99;54.70;100029.91;2096336;28;46624;-64
2022/12/13 03:46:52;;;;;;;;;24.00;20.60;;;;;1.98;54.44;100036.00;2096773;28;46374;-63
2022/12/13 03:47:52;;;;;;;;;21.00;21.00;;;;;1.97;55.08;100032.53;2096217;28;46759;-65
2022/12/13 03:48:53;;;;;;;;;20.00;19.25;;;;;1.96;54.78;100035.13;2096651;28;46547;-64
2022/12/13 03:49:54;;;;;;;;;20.00;19.00;;;;;1.95;54.62;100036.00;2096716;28;46859;-64
2022/12/13 03:50:56;;;;;;;;;23.60;21.20;;;;;1.96;54.66;100032.53;2095875;28;46496;-64
2022/12/13 03:51:56;;;;;;;;;25.00;22.20;;;;;1.96;54.57;100033.41;2096630;28;46618;-64
2022/12/13 03:52:58;;;;;;;;;21.25;20.25;;;;;1.96;54.83;100036.00;2096927;28;46817;-64
2022/12/13 03:53:58;;;;;;;;;26.60;22.80;;;;;1.95;54.77;100025.53;2096562;28;46794;-64
2022/12/13 03:54:59;;;;;;;;;22.00;20.75;;;;;1.93;55.04;100030.78;2096784;28;46969;-64
2022/12/13 03:56:01;;;;;;;;;23.50;21.50;;;;;1.94;54.84;100034.28;2088957;28;46073;-64
2022/12/13 03:57:01;;;;;;;;;18.80;18.80;;;;;1.95;54.95;100033.41;2085712;28;46778;-63
2022/12/13 03:58:01;;;;;;;;;23.50;19.50;;;;;1.95;54.86;100033.41;2096217;28;46777;-63
2022/12/13 03:59:02;;;;;;;;;25.00;23.00;;;;;1.93;54.56;100030.78;2096627;28;46351;-63
2022/12/13 04:00:03;;;;;;;;;25.25;23.50;;;;;1.94;55.03;100032.53;2095673;28;46757;-62
2022/12/13 04:01:06;;;;;;;;;26.40;22.80;;;;;1.94;54.54;100029.91;2096723;28;47174;-63
2022/12/13 04:02:06;;;;;;;;;21.40;19.00;;;;;1.94;54.49;100029.03;2096276;28;46831;-63
2022/12/13 04:03:06;;;;;;;;;21.50;19.50;;;;;1.93;54.72;100028.16;2096176;28;46392;-62
2022/12/13 04:04:06;;;;;;;;;18.25;18.25;;;;;1.94;54.50;100031.66;2096693;28;45526;-63
2022/12/13 04:05:07;;;;;;;;;22.75;22.75;;;;;1.92;55.02;100029.03;2096796;28;46789;-62
2022/12/13 04:06:08;;;;;;;;;24.75;20.75;;;;;1.91;54.62;100026.41;2096412;28;46521;-63
2022/12/13 04:07:08;;;;;;;;;22.40;21.20;;;;;1.91;54.98;100037.75;2096628;28;46856;-62
2022/12/13 04:08:09;;;;;;;;;26.50;23.50;;;;;1.91;54.83;100037.75;2096379;28;46592;-64
2022/12/13 04:09:09;;;;;;;;;26.50;22.25;;;;;1.91;55.06;100039.50;2096880;28;46493;-63
2022/12/13 04:10:09;;;;;;;;;26.50;22.50;;;;;1.91;55.15;100044.72;2096150;28;46187;-63
2022/12/13 04:13:47;;;;;;;;;21.60;21.60;;;;;1.93;54.73;100045.59;2095953;28;46829;-64
2022/12/13 04:14:47;;;;;;;;;22.75;19.75;;;;;1.92;55.15;100042.13;2096455;28;46313;-63
2022/12/13 04:15:48;;;;;;;;;22.00;20.00;;;;;1.91;54.74;100037.75;2096449;28;46180;-63
2022/12/13 04:16:50;;;;;;;;;25.00;22.00;;;;;1.92;54.89;100043.84;2096489;28;47007;-62
2022/12/13 04:17:50;;;;;;;;;21.00;21.00;;;;;1.91;54.73;100036.88;2096210;28;48317;-63
2022/12/13 04:18:50;;;;;;;;;24.50;22.00;;;;;1.91;55.21;100040.38;2096282;28;46691;-62
2022/12/13 04:19:50;;;;;;;;;19.50;19.50;;;;;1.93;54.83;100035.13;2096294;28;46519;-63
2022/12/13 04:20:51;;;;;;;;;23.75;21.00;;;;;1.94;54.86;100036.88;2096430;28;46241;-63
2022/12/13 04:21:55;;;;;;;;;23.00;22.00;;;;;1.94;54.81;100034.28;2096593;28;46485;-64
2022/12/13 04:22:55;;;;;;;;;24.60;22.60;;;;;1.91;54.66;100036.88;2096382;28;46942;-64
2022/12/13 04:23:55;;;;;;;;;22.00;21.50;;;;;1.92;54.55;100030.78;2096329;28;46774;-62
2022/12/13 04:24:56;;;;;;;;;25.25;21.75;;;;;1.91;54.90;100037.75;2096595;28;46730;-63
2022/12/13 04:25:58;;;;;;;;;21.75;21.75;;;;;1.92;54.99;100036.00;2096158;28;46280;-62
2022/12/13 04:27:00;;;;;;;;;23.80;23.00;;;;;1.91;55.02;100034.28;2096558;28;46739;-63
2022/12/13 04:28:01;;;;;;;;;32.20;26.20;;;;;1.89;54.65;100028.13;2096550;28;46484;-62
2022/12/13 04:29:01;;;;;;;;;23.00;19.75;;;;;1.89;55.06;100033.34;2094337;28;46680;-63
2022/12/13 04:30:01;;;;;;;;;19.25;15.75;;;;;1.88;55.08;100034.22;2104328;27;46847;-64
2022/12/13 04:31:02;;;;;;;;;20.25;20.25;;;;;1.90;54.96;100038.59;2095524;28;45855;-63
2022/12/13 04:32:03;;;;;;;;;27.25;22.75;;;;;1.90;55.07;100032.50;2095252;28;46715;-63
2022/12/13 04:33:03;;;;;;;;;22.80;20.60;;;;;1.91;54.74;100031.66;2094683;28;47129;-62
2022/12/13 04:34:04;;;;;;;;;29.75;25.25;;;;;1.89;54.84;100031.63;2095458;28;46649;-64
2022/12/13 04:35:04;;;;;;;;;31.25;26.75;;;;;1.90;54.65;100022.03;2096688;28;45484;-63
2022/12/13 04:36:05;;;;;;;;;28.50;26.00;;;;;1.89;54.60;100018.53;2093139;28;46203;-62
2022/12/13 04:37:06;;;;;;;;;19.75;18.25;;;;;1.90;55.15;100019.41;2095823;28;47041;-63
2022/12/13 04:38:06;;;;;;;;;21.75;21.75;;;;;1.88;54.62;100013.31;2096373;28;46434;-64
2022/12/13 04:39:06;;;;;;;;;9.75;9.00;;;;;1.89;54.84;100015.06;2096501;28;45904;-62
2022/12/13 04:40:07;;;;;;;;;25.75;23.75;;;;;1.90;54.93;100015.03;2096361;28;45285;-64
2022/12/13 04:41:14;;;;;;;;;25.00;25.00;;;;;1.89;54.96;100017.66;2096377;28;46635;-64
2022/12/13 04:42:14;;;;;;;;;27.60;24.00;;;;;1.87;54.84;100012.44;2096240;28;46462;-64
2022/12/13 04:43:15;;;;;;;;;28.50;25.25;;;;;1.88;55.26;100015.91;2096644;28;46186;-65
2022/12/13 04:44:15;;;;;;;;;27.75;25.00;;;;;1.88;55.07;100015.91;2096427;28;46171;-65
2022/12/13 04:45:17;;;;;;;;;28.25;25.00;;;;;1.89;54.83;100012.44;2096632;28;47082;-64
2022/12/13 04:46:18;;;;;;;;;25.80;22.60;;;;;1.90;54.80;100006.31;2096453;28;46276;-65
2022/12/13 04:47:19;;;;;;;;;26.80;25.00;;;;;1.89;55.14;100001.97;2096031;28;46953;-65
2022/12/13 04:48:19;;;;;;;;;24.50;23.75;;;;;1.90;54.77;100009.81;2095372;28;46808;-63
2022/12/13 04:49:19;;;;;;;;;27.00;25.75;;;;;1.90;54.74;100009.81;2096069;28;45907;-65
2022/12/13 04:50:20;;;;;;;;;24.50;22.25;;;;;1.90;54.64;100003.72;2091282;28;46130;-63
2022/12/13 04:51:20;;;;;;;;;27.00;26.50;;;;;1.90;55.05;100011.56;2096742;28;45644;-66
2022/12/13 04:52:20;;;;;;;;;25.50;24.50;;;;;1.90;54.93;100003.72;2096074;28;46619;-63
2022/12/13 04:53:20;;;;;;;;;26.75;26.75;;;;;1.90;54.64;100008.94;2096547;28;45354;-64
2022/12/13 04:54:21;;;;;;;;;27.75;24.25;;;;;1.91;54.53;100013.34;2096012;28;46166;-65
2022/12/13 04:55:21;;;;;;;;;22.00;19.75;;;;;1.90;55.07;100007.19;2096377;28;46596;-65
2022/12/13 04:56:21;;;;;;;;;26.00;23.75;;;;;1.91;54.48;100011.59;2096027;28;46682;-63
2022/12/13 04:57:22;;;;;;;;;24.50;24.50;;;;;1.90;54.96;100011.56;2095982;28;46371;-64